sensor_id;sensor_type;location;lat;lon;timestamp;P1;durP1;ratioP1;P2;durP2;ratioP2
69161;SDS011;56269;51.738;21.652;2022-12-29T00:01:35;15.55;;;5.95;;
69161;SDS011;56269;51.738;21.652;2022-12-29T00:04:02;17.35;;;6.32;;
69161;SDS011;56269;51.738;21.652;2022-12-29T00:06:29;14.18;;;5.55;;
69161;SDS011;56269;51.738;21.652;2022-12-29T00:08:56;14.50;;;6.00;;
69161;SDS011;56269;51.738;21.652;2022-12-29T00:11:23;16.80;;;5.97;;
69161;SDS011;56269;51.738;21.652;2022-12-29T00:13:52;16.55;;;5.97;;
69161;SDS011;56269;51.738;21.652;2022-12-29T00:16:39;16.08;;;6.28;;
69161;SDS011;56269;51.738;21.652;2022-12-29T00:19:07;18.92;;;6.82;;
69161;SDS011;56269;51.738;21.652;2022-12-29T00:21:53;15.20;;;6.15;;
69161;SDS011;56269;51.738;21.652;2022-12-29T00:24:42;15.37;;;5.73;;
69161;SDS011;56269;51.738;21.652;2022-12-29T00:27:19;23.38;;;7.18;;
69161;SDS011;56269;51.738;21.652;2022-12-29T00:30:08;21.40;;;6.22;;
69161;SDS011;56269;51.738;21.652;2022-12-29T00:32:54;14.23;;;5.22;;
69161;SDS011;56269;51.738;21.652;2022-12-29T00:35:43;20.77;;;6.43;;
69161;SDS011;56269;51.738;21.652;2022-12-29T00:38:12;15.57;;;5.93;;
69161;SDS011;56269;51.738;21.652;2022-12-29T00:40:58;16.00;;;6.40;;
69161;SDS011;56269;51.738;21.652;2022-12-29T00:43:43;13.18;;;5.25;;
69161;SDS011;56269;51.738;21.652;2022-12-29T00:46:27;19.85;;;6.53;;
69161;SDS011;56269;51.738;21.652;2022-12-29T00:48:54;16.40;;;6.40;;
69161;SDS011;56269;51.738;21.652;2022-12-29T00:51:38;13.37;;;5.80;;
69161;SDS011;56269;51.738;21.652;2022-12-29T00:54:05;13.98;;;5.95;;
69161;SDS011;56269;51.738;21.652;2022-12-29T00:56:31;16.27;;;5.40;;
69161;SDS011;56269;51.738;21.652;2022-12-29T00:59:01;17.30;;;6.47;;
69161;SDS011;56269;51.738;21.652;2022-12-29T01:01:31;18.08;;;6.57;;
69161;SDS011;56269;51.738;21.652;2022-12-29T01:03:58;16.50;;;6.27;;
69161;SDS011;56269;51.738;21.652;2022-12-29T01:06:24;17.30;;;6.80;;
69161;SDS011;56269;51.738;21.652;2022-12-29T01:08:51;17.85;;;7.05;;
69161;SDS011;56269;51.738;21.652;2022-12-29T01:11:52;15.82;;;5.93;;
69161;SDS011;56269;51.738;21.652;2022-12-29T01:14:19;17.20;;;5.32;;
69161;SDS011;56269;51.738;21.652;2022-12-29T01:16:46;13.73;;;4.90;;
69161;SDS011;56269;51.738;21.652;2022-12-29T01:19:13;18.45;;;6.72;;
69161;SDS011;56269;51.738;21.652;2022-12-29T01:21:40;16.10;;;5.65;;
69161;SDS011;56269;51.738;21.652;2022-12-29T01:24:06;16.70;;;6.65;;
69161;SDS011;56269;51.738;21.652;2022-12-29T01:26:32;16.75;;;6.38;;
69161;SDS011;56269;51.738;21.652;2022-12-29T01:28:59;17.23;;;6.10;;
69161;SDS011;56269;51.738;21.652;2022-12-29T01:31:25;16.02;;;5.57;;
69161;SDS011;56269;51.738;21.652;2022-12-29T01:33:52;19.48;;;6.97;;
69161;SDS011;56269;51.738;21.652;2022-12-29T01:36:18;16.08;;;6.47;;
69161;SDS011;56269;51.738;21.652;2022-12-29T01:38:45;18.67;;;6.82;;
69161;SDS011;56269;51.738;21.652;2022-12-29T01:41:12;15.67;;;5.37;;
69161;SDS011;56269;51.738;21.652;2022-12-29T01:43:50;15.48;;;5.28;;
69161;SDS011;56269;51.738;21.652;2022-12-29T01:51:31;14.63;;;5.43;;
69161;SDS011;56269;51.738;21.652;2022-12-29T01:54:08;18.50;;;6.33;;
69161;SDS011;56269;51.738;21.652;2022-12-29T01:56:39;14.60;;;5.00;;
69161;SDS011;56269;51.738;21.652;2022-12-29T01:59:10;14.20;;;5.05;;
69161;SDS011;56269;51.738;21.652;2022-12-29T02:01:42;15.82;;;5.63;;
69161;SDS011;56269;51.738;21.652;2022-12-29T02:04:09;16.48;;;6.03;;
69161;SDS011;56269;51.738;21.652;2022-12-29T02:06:41;18.30;;;5.60;;
69161;SDS011;56269;51.738;21.652;2022-12-29T02:09:19;15.20;;;6.20;;
69161;SDS011;56269;51.738;21.652;2022-12-29T02:11:46;17.73;;;5.95;;
69161;SDS011;56269;51.738;21.652;2022-12-29T02:14:13;13.30;;;5.20;;
69161;SDS011;56269;51.738;21.652;2022-12-29T02:22:27;18.00;;;6.28;;
69161;SDS011;56269;51.738;21.652;2022-12-29T02:33:37;12.93;;;4.23;;
69161;SDS011;56269;51.738;21.652;2022-12-29T02:41:41;10.98;;;4.57;;
69161;SDS011;56269;51.738;21.652;2022-12-29T02:47:20;14.33;;;5.33;;
69161;SDS011;56269;51.738;21.652;2022-12-29T02:50:01;17.48;;;5.50;;
69161;SDS011;56269;51.738;21.652;2022-12-29T02:52:37;12.63;;;4.15;;
69161;SDS011;56269;51.738;21.652;2022-12-29T02:55:09;12.02;;;4.72;;
69161;SDS011;56269;51.738;21.652;2022-12-29T02:57:37;12.32;;;4.45;;
69161;SDS011;56269;51.738;21.652;2022-12-29T03:00:07;15.53;;;5.60;;
69161;SDS011;56269;51.738;21.652;2022-12-29T03:05:35;16.38;;;5.97;;
69161;SDS011;56269;51.738;21.652;2022-12-29T03:08:34;13.45;;;5.28;;
69161;SDS011;56269;51.738;21.652;2022-12-29T03:11:20;12.65;;;4.93;;
69161;SDS011;56269;51.738;21.652;2022-12-29T03:14:17;13.33;;;4.50;;
69161;SDS011;56269;51.738;21.652;2022-12-29T03:17:19;12.35;;;4.40;;
69161;SDS011;56269;51.738;21.652;2022-12-29T03:19:48;13.98;;;4.55;;
69161;SDS011;56269;51.738;21.652;2022-12-29T03:22:18;13.50;;;4.95;;
69161;SDS011;56269;51.738;21.652;2022-12-29T03:27:35;14.27;;;4.67;;
69161;SDS011;56269;51.738;21.652;2022-12-29T03:30:07;14.30;;;4.88;;
69161;SDS011;56269;51.738;21.652;2022-12-29T03:32:39;13.25;;;4.97;;
69161;SDS011;56269;51.738;21.652;2022-12-29T03:35:07;14.40;;;5.30;;
69161;SDS011;56269;51.738;21.652;2022-12-29T03:37:36;13.63;;;4.88;;
69161;SDS011;56269;51.738;21.652;2022-12-29T03:40:06;13.13;;;4.97;;
69161;SDS011;56269;51.738;21.652;2022-12-29T03:42:34;15.00;;;5.30;;
69161;SDS011;56269;51.738;21.652;2022-12-29T03:45:03;20.75;;;5.82;;
69161;SDS011;56269;51.738;21.652;2022-12-29T03:47:31;12.27;;;5.03;;
69161;SDS011;56269;51.738;21.652;2022-12-29T03:49:57;14.30;;;6.07;;
69161;SDS011;56269;51.738;21.652;2022-12-29T03:52:23;15.93;;;6.13;;
69161;SDS011;56269;51.738;21.652;2022-12-29T03:54:50;11.52;;;4.32;;
69161;SDS011;56269;51.738;21.652;2022-12-29T03:57:16;15.13;;;4.95;;
69161;SDS011;56269;51.738;21.652;2022-12-29T03:59:42;12.10;;;4.57;;
69161;SDS011;56269;51.738;21.652;2022-12-29T04:02:08;16.33;;;6.10;;
69161;SDS011;56269;51.738;21.652;2022-12-29T04:04:35;14.52;;;5.38;;
69161;SDS011;56269;51.738;21.652;2022-12-29T04:07:01;13.20;;;4.80;;
69161;SDS011;56269;51.738;21.652;2022-12-29T04:09:28;20.38;;;6.60;;
69161;SDS011;56269;51.738;21.652;2022-12-29T04:11:55;12.35;;;4.43;;
69161;SDS011;56269;51.738;21.652;2022-12-29T04:14:21;16.90;;;5.80;;
69161;SDS011;56269;51.738;21.652;2022-12-29T04:16:47;14.00;;;5.80;;
69161;SDS011;56269;51.738;21.652;2022-12-29T04:19:14;14.63;;;5.57;;
69161;SDS011;56269;51.738;21.652;2022-12-29T04:21:40;16.52;;;5.57;;
69161;SDS011;56269;51.738;21.652;2022-12-29T04:24:06;15.32;;;5.10;;
69161;SDS011;56269;51.738;21.652;2022-12-29T04:26:33;12.17;;;4.37;;
69161;SDS011;56269;51.738;21.652;2022-12-29T04:29:00;10.90;;;3.58;;
69161;SDS011;56269;51.738;21.652;2022-12-29T04:31:26;12.57;;;4.35;;
69161;SDS011;56269;51.738;21.652;2022-12-29T04:33:52;12.00;;;4.55;;
69161;SDS011;56269;51.738;21.652;2022-12-29T04:36:18;12.35;;;4.57;;
69161;SDS011;56269;51.738;21.652;2022-12-29T04:38:45;16.67;;;4.73;;
69161;SDS011;56269;51.738;21.652;2022-12-29T04:41:11;12.25;;;4.80;;
69161;SDS011;56269;51.738;21.652;2022-12-29T04:43:37;13.25;;;5.03;;
69161;SDS011;56269;51.738;21.652;2022-12-29T04:46:03;15.02;;;4.90;;
69161;SDS011;56269;51.738;21.652;2022-12-29T04:48:30;13.57;;;5.05;;
69161;SDS011;56269;51.738;21.652;2022-12-29T04:50:56;12.60;;;4.70;;
69161;SDS011;56269;51.738;21.652;2022-12-29T04:53:22;13.75;;;5.38;;
69161;SDS011;56269;51.738;21.652;2022-12-29T04:55:52;11.43;;;4.35;;
69161;SDS011;56269;51.738;21.652;2022-12-29T04:58:19;14.00;;;5.38;;
69161;SDS011;56269;51.738;21.652;2022-12-29T05:00:46;20.80;;;5.50;;
69161;SDS011;56269;51.738;21.652;2022-12-29T05:03:12;11.80;;;4.30;;
69161;SDS011;56269;51.738;21.652;2022-12-29T05:05:38;13.20;;;4.43;;
69161;SDS011;56269;51.738;21.652;2022-12-29T05:08:05;11.95;;;4.10;;
69161;SDS011;56269;51.738;21.652;2022-12-29T05:10:31;10.20;;;4.15;;
69161;SDS011;56269;51.738;21.652;2022-12-29T05:13:07;12.70;;;4.55;;
69161;SDS011;56269;51.738;21.652;2022-12-29T05:15:36;11.33;;;4.17;;
69161;SDS011;56269;51.738;21.652;2022-12-29T05:18:02;11.20;;;3.45;;
69161;SDS011;56269;51.738;21.652;2022-12-29T05:20:28;12.00;;;4.78;;
69161;SDS011;56269;51.738;21.652;2022-12-29T05:22:55;10.25;;;4.05;;
69161;SDS011;56269;51.738;21.652;2022-12-29T05:25:21;8.65;;;3.38;;
69161;SDS011;56269;51.738;21.652;2022-12-29T05:27:47;9.17;;;3.23;;
69161;SDS011;56269;51.738;21.652;2022-12-29T05:30:13;12.55;;;4.75;;
69161;SDS011;56269;51.738;21.652;2022-12-29T05:32:40;9.00;;;3.38;;
69161;SDS011;56269;51.738;21.652;2022-12-29T05:35:06;10.27;;;3.75;;
69161;SDS011;56269;51.738;21.652;2022-12-29T05:37:33;9.18;;;3.72;;
69161;SDS011;56269;51.738;21.652;2022-12-29T05:39:59;10.00;;;3.33;;
69161;SDS011;56269;51.738;21.652;2022-12-29T05:42:25;10.32;;;3.83;;
69161;SDS011;56269;51.738;21.652;2022-12-29T05:44:51;10.75;;;4.00;;
69161;SDS011;56269;51.738;21.652;2022-12-29T05:47:19;10.57;;;3.90;;
69161;SDS011;56269;51.738;21.652;2022-12-29T05:49:45;9.10;;;3.30;;
69161;SDS011;56269;51.738;21.652;2022-12-29T05:52:12;7.87;;;2.77;;
69161;SDS011;56269;51.738;21.652;2022-12-29T05:54:38;10.15;;;3.15;;
69161;SDS011;56269;51.738;21.652;2022-12-29T05:57:04;11.43;;;3.88;;
69161;SDS011;56269;51.738;21.652;2022-12-29T05:59:30;10.77;;;3.58;;
69161;SDS011;56269;51.738;21.652;2022-12-29T06:01:56;13.05;;;3.58;;
69161;SDS011;56269;51.738;21.652;2022-12-29T06:04:22;10.50;;;3.53;;
69161;SDS011;56269;51.738;21.652;2022-12-29T06:06:49;10.77;;;3.45;;
69161;SDS011;56269;51.738;21.652;2022-12-29T06:09:15;10.23;;;3.85;;
69161;SDS011;56269;51.738;21.652;2022-12-29T06:11:41;7.50;;;2.40;;
69161;SDS011;56269;51.738;21.652;2022-12-29T06:14:08;9.25;;;3.90;;
69161;SDS011;56269;51.738;21.652;2022-12-29T06:16:34;12.13;;;3.90;;
69161;SDS011;56269;51.738;21.652;2022-12-29T06:19:01;7.03;;;2.95;;
69161;SDS011;56269;51.738;21.652;2022-12-29T06:21:28;8.75;;;3.30;;
69161;SDS011;56269;51.738;21.652;2022-12-29T06:23:54;9.20;;;3.83;;
69161;SDS011;56269;51.738;21.652;2022-12-29T06:26:20;8.02;;;3.10;;
69161;SDS011;56269;51.738;21.652;2022-12-29T06:28:46;10.67;;;4.03;;
69161;SDS011;56269;51.738;21.652;2022-12-29T06:31:13;12.00;;;4.47;;
69161;SDS011;56269;51.738;21.652;2022-12-29T06:33:39;12.30;;;4.40;;
69161;SDS011;56269;51.738;21.652;2022-12-29T06:36:05;7.60;;;3.42;;
69161;SDS011;56269;51.738;21.652;2022-12-29T06:38:32;9.02;;;3.35;;
69161;SDS011;56269;51.738;21.652;2022-12-29T06:40:58;10.27;;;3.13;;
69161;SDS011;56269;51.738;21.652;2022-12-29T06:43:24;11.15;;;3.55;;
69161;SDS011;56269;51.738;21.652;2022-12-29T06:45:51;10.65;;;3.17;;
69161;SDS011;56269;51.738;21.652;2022-12-29T06:48:17;9.82;;;3.80;;
69161;SDS011;56269;51.738;21.652;2022-12-29T06:50:43;10.52;;;3.42;;
69161;SDS011;56269;51.738;21.652;2022-12-29T06:53:09;7.80;;;3.57;;
69161;SDS011;56269;51.738;21.652;2022-12-29T06:55:36;9.90;;;3.00;;
69161;SDS011;56269;51.738;21.652;2022-12-29T06:58:02;9.45;;;3.40;;
69161;SDS011;56269;51.738;21.652;2022-12-29T07:00:28;7.95;;;3.38;;
69161;SDS011;56269;51.738;21.652;2022-12-29T07:02:55;12.25;;;3.78;;
69161;SDS011;56269;51.738;21.652;2022-12-29T07:05:24;10.50;;;3.53;;
69161;SDS011;56269;51.738;21.652;2022-12-29T07:07:53;12.63;;;4.00;;
69161;SDS011;56269;51.738;21.652;2022-12-29T07:10:20;8.23;;;3.22;;
69161;SDS011;56269;51.738;21.652;2022-12-29T07:12:57;7.50;;;2.95;;
69161;SDS011;56269;51.738;21.652;2022-12-29T07:15:26;10.82;;;3.70;;
69161;SDS011;56269;51.738;21.652;2022-12-29T07:17:52;8.60;;;2.60;;
69161;SDS011;56269;51.738;21.652;2022-12-29T07:20:18;12.73;;;4.30;;
69161;SDS011;56269;51.738;21.652;2022-12-29T07:22:44;10.95;;;3.58;;
69161;SDS011;56269;51.738;21.652;2022-12-29T07:25:12;9.55;;;3.45;;
69161;SDS011;56269;51.738;21.652;2022-12-29T07:27:39;12.95;;;4.05;;
69161;SDS011;56269;51.738;21.652;2022-12-29T07:30:05;8.70;;;3.07;;
69161;SDS011;56269;51.738;21.652;2022-12-29T07:32:32;9.95;;;3.92;;
69161;SDS011;56269;51.738;21.652;2022-12-29T07:34:59;9.95;;;3.63;;
69161;SDS011;56269;51.738;21.652;2022-12-29T07:37:25;8.60;;;3.08;;
69161;SDS011;56269;51.738;21.652;2022-12-29T07:39:52;9.80;;;4.00;;
69161;SDS011;56269;51.738;21.652;2022-12-29T07:42:18;8.93;;;2.67;;
69161;SDS011;56269;51.738;21.652;2022-12-29T07:44:44;9.43;;;3.53;;
69161;SDS011;56269;51.738;21.652;2022-12-29T07:47:11;10.70;;;4.28;;
69161;SDS011;56269;51.738;21.652;2022-12-29T07:49:37;9.07;;;3.47;;
69161;SDS011;56269;51.738;21.652;2022-12-29T07:52:03;9.40;;;3.70;;
69161;SDS011;56269;51.738;21.652;2022-12-29T07:54:30;9.77;;;3.77;;
69161;SDS011;56269;51.738;21.652;2022-12-29T07:56:56;9.07;;;3.17;;
69161;SDS011;56269;51.738;21.652;2022-12-29T07:59:25;9.13;;;3.15;;
69161;SDS011;56269;51.738;21.652;2022-12-29T08:01:52;9.20;;;3.28;;
69161;SDS011;56269;51.738;21.652;2022-12-29T08:04:18;8.88;;;3.30;;
69161;SDS011;56269;51.738;21.652;2022-12-29T08:06:44;10.17;;;3.53;;
69161;SDS011;56269;51.738;21.652;2022-12-29T08:09:11;10.50;;;3.08;;
69161;SDS011;56269;51.738;21.652;2022-12-29T08:11:37;9.90;;;3.67;;
69161;SDS011;56269;51.738;21.652;2022-12-29T08:14:04;8.27;;;2.30;;
69161;SDS011;56269;51.738;21.652;2022-12-29T08:16:30;8.00;;;2.83;;
69161;SDS011;56269;51.738;21.652;2022-12-29T08:18:56;7.00;;;2.93;;
69161;SDS011;56269;51.738;21.652;2022-12-29T08:21:22;9.00;;;3.97;;
69161;SDS011;56269;51.738;21.652;2022-12-29T08:23:49;8.80;;;3.45;;
69161;SDS011;56269;51.738;21.652;2022-12-29T08:26:15;9.02;;;4.15;;
69161;SDS011;56269;51.738;21.652;2022-12-29T08:28:42;8.20;;;3.03;;
69161;SDS011;56269;51.738;21.652;2022-12-29T08:31:07;7.60;;;2.50;;
69161;SDS011;56269;51.738;21.652;2022-12-29T08:33:34;13.63;;;3.58;;
69161;SDS011;56269;51.738;21.652;2022-12-29T08:36:01;8.18;;;2.83;;
69161;SDS011;56269;51.738;21.652;2022-12-29T08:38:30;7.35;;;2.85;;
69161;SDS011;56269;51.738;21.652;2022-12-29T08:40:56;8.35;;;3.28;;
69161;SDS011;56269;51.738;21.652;2022-12-29T08:43:24;8.87;;;3.30;;
69161;SDS011;56269;51.738;21.652;2022-12-29T08:45:50;7.80;;;3.60;;
69161;SDS011;56269;51.738;21.652;2022-12-29T08:48:17;9.32;;;3.08;;
69161;SDS011;56269;51.738;21.652;2022-12-29T08:50:46;8.07;;;3.10;;
69161;SDS011;56269;51.738;21.652;2022-12-29T08:53:13;9.57;;;3.45;;
69161;SDS011;56269;51.738;21.652;2022-12-29T08:55:39;11.60;;;3.77;;
69161;SDS011;56269;51.738;21.652;2022-12-29T08:58:06;9.35;;;2.88;;
69161;SDS011;56269;51.738;21.652;2022-12-29T09:00:32;9.82;;;3.28;;
69161;SDS011;56269;51.738;21.652;2022-12-29T09:02:58;7.45;;;2.75;;
69161;SDS011;56269;51.738;21.652;2022-12-29T09:05:24;9.00;;;3.33;;
69161;SDS011;56269;51.738;21.652;2022-12-29T09:07:51;7.87;;;2.77;;
69161;SDS011;56269;51.738;21.652;2022-12-29T09:10:17;6.47;;;2.97;;
69161;SDS011;56269;51.738;21.652;2022-12-29T09:12:43;13.32;;;3.95;;
69161;SDS011;56269;51.738;21.652;2022-12-29T09:15:09;8.32;;;3.17;;
69161;SDS011;56269;51.738;21.652;2022-12-29T09:17:36;7.13;;;2.83;;
69161;SDS011;56269;51.738;21.652;2022-12-29T09:20:19;10.07;;;3.73;;
69161;SDS011;56269;51.738;21.652;2022-12-29T09:22:46;9.60;;;3.95;;
69161;SDS011;56269;51.738;21.652;2022-12-29T09:25:14;9.07;;;3.30;;
69161;SDS011;56269;51.738;21.652;2022-12-29T09:27:41;7.68;;;2.67;;
69161;SDS011;56269;51.738;21.652;2022-12-29T09:30:08;8.00;;;3.35;;
69161;SDS011;56269;51.738;21.652;2022-12-29T09:32:37;8.87;;;3.17;;
69161;SDS011;56269;51.738;21.652;2022-12-29T09:35:03;9.57;;;3.65;;
69161;SDS011;56269;51.738;21.652;2022-12-29T09:37:30;8.45;;;3.33;;
69161;SDS011;56269;51.738;21.652;2022-12-29T09:39:56;8.52;;;3.70;;
69161;SDS011;56269;51.738;21.652;2022-12-29T09:42:37;8.18;;;3.33;;
69161;SDS011;56269;51.738;21.652;2022-12-29T09:45:10;8.73;;;3.30;;
69161;SDS011;56269;51.738;21.652;2022-12-29T09:47:44;9.95;;;3.47;;
69161;SDS011;56269;51.738;21.652;2022-12-29T09:50:24;10.95;;;3.88;;
69161;SDS011;56269;51.738;21.652;2022-12-29T09:53:00;9.40;;;3.25;;
69161;SDS011;56269;51.738;21.652;2022-12-29T09:56:01;10.43;;;2.92;;
69161;SDS011;56269;51.738;21.652;2022-12-29T09:58:39;6.20;;;2.37;;
69161;SDS011;56269;51.738;21.652;2022-12-29T10:01:17;6.82;;;2.63;;
69161;SDS011;56269;51.738;21.652;2022-12-29T10:03:57;8.07;;;3.40;;
69161;SDS011;56269;51.738;21.652;2022-12-29T10:12:36;6.90;;;2.57;;
69161;SDS011;56269;51.738;21.652;2022-12-29T10:24:03;7.25;;;2.35;;
69161;SDS011;56269;51.738;21.652;2022-12-29T10:26:30;9.00;;;3.07;;
69161;SDS011;56269;51.738;21.652;2022-12-29T10:29:05;9.90;;;2.92;;
69161;SDS011;56269;51.738;21.652;2022-12-29T10:31:40;7.78;;;2.92;;
69161;SDS011;56269;51.738;21.652;2022-12-29T10:34:20;12.30;;;4.43;;
69161;SDS011;56269;51.738;21.652;2022-12-29T10:36:54;10.88;;;4.13;;
69161;SDS011;56269;51.738;21.652;2022-12-29T10:39:51;11.97;;;4.63;;
69161;SDS011;56269;51.738;21.652;2022-12-29T10:42:21;12.15;;;4.55;;
69161;SDS011;56269;51.738;21.652;2022-12-29T10:44:58;15.68;;;5.30;;
69161;SDS011;56269;51.738;21.652;2022-12-29T10:47:27;12.15;;;4.95;;
69161;SDS011;56269;51.738;21.652;2022-12-29T10:49:58;11.05;;;4.47;;
69161;SDS011;56269;51.738;21.652;2022-12-29T10:52:26;11.67;;;4.63;;
69161;SDS011;56269;51.738;21.652;2022-12-29T10:54:55;10.23;;;3.65;;
69161;SDS011;56269;51.738;21.652;2022-12-29T10:57:27;10.05;;;3.45;;
69161;SDS011;56269;51.738;21.652;2022-12-29T10:59:58;11.52;;;3.72;;
69161;SDS011;56269;51.738;21.652;2022-12-29T11:05:26;10.23;;;3.57;;
69161;SDS011;56269;51.738;21.652;2022-12-29T11:07:58;8.18;;;3.20;;
69161;SDS011;56269;51.738;21.652;2022-12-29T11:13:02;8.18;;;3.50;;
69161;SDS011;56269;51.738;21.652;2022-12-29T11:15:43;11.93;;;3.58;;
69161;SDS011;56269;51.738;21.652;2022-12-29T11:18:21;8.97;;;3.50;;
69161;SDS011;56269;51.738;21.652;2022-12-29T11:20:48;9.23;;;3.60;;
69161;SDS011;56269;51.738;21.652;2022-12-29T11:23:24;9.50;;;3.50;;
69161;SDS011;56269;51.738;21.652;2022-12-29T11:26:12;11.00;;;3.47;;
69161;SDS011;56269;51.738;21.652;2022-12-29T11:28:43;8.00;;;3.28;;
69161;SDS011;56269;51.738;21.652;2022-12-29T11:31:15;10.37;;;4.27;;
69161;SDS011;56269;51.738;21.652;2022-12-29T11:33:42;11.32;;;3.85;;
69161;SDS011;56269;51.738;21.652;2022-12-29T11:36:18;12.55;;;4.32;;
69161;SDS011;56269;51.738;21.652;2022-12-29T11:38:49;11.77;;;4.18;;
69161;SDS011;56269;51.738;21.652;2022-12-29T11:41:22;9.35;;;3.58;;
69161;SDS011;56269;51.738;21.652;2022-12-29T11:43:50;12.73;;;4.43;;
69161;SDS011;56269;51.738;21.652;2022-12-29T11:46:28;10.43;;;4.40;;
69161;SDS011;56269;51.738;21.652;2022-12-29T11:48:58;11.63;;;3.05;;
69161;SDS011;56269;51.738;21.652;2022-12-29T11:51:30;10.80;;;3.92;;
69161;SDS011;56269;51.738;21.652;2022-12-29T11:56:43;14.50;;;5.23;;
69161;SDS011;56269;51.738;21.652;2022-12-29T12:01:57;10.45;;;3.80;;
69161;SDS011;56269;51.738;21.652;2022-12-29T12:04:26;18.40;;;6.32;;
69161;SDS011;56269;51.738;21.652;2022-12-29T12:07:19;11.23;;;4.28;;
69161;SDS011;56269;51.738;21.652;2022-12-29T12:09:53;9.87;;;3.53;;
69161;SDS011;56269;51.738;21.652;2022-12-29T12:12:30;10.63;;;3.80;;
69161;SDS011;56269;51.738;21.652;2022-12-29T12:15:03;10.95;;;4.35;;
69161;SDS011;56269;51.738;21.652;2022-12-29T12:17:31;10.65;;;3.95;;
69161;SDS011;56269;51.738;21.652;2022-12-29T12:20:22;10.20;;;4.72;;
69161;SDS011;56269;51.738;21.652;2022-12-29T12:29:05;8.82;;;3.38;;
69161;SDS011;56269;51.738;21.652;2022-12-29T12:34:18;11.43;;;4.55;;
69161;SDS011;56269;51.738;21.652;2022-12-29T12:37:13;11.83;;;4.40;;
69161;SDS011;56269;51.738;21.652;2022-12-29T12:48:44;11.38;;;4.75;;
69161;SDS011;56269;51.738;21.652;2022-12-29T12:51:28;12.53;;;4.20;;
69161;SDS011;56269;51.738;21.652;2022-12-29T12:56:57;12.30;;;4.03;;
69161;SDS011;56269;51.738;21.652;2022-12-29T13:11:20;9.38;;;3.58;;
69161;SDS011;56269;51.738;21.652;2022-12-29T13:20:00;11.83;;;4.30;;
69161;SDS011;56269;51.738;21.652;2022-12-29T13:22:30;10.45;;;4.05;;
69161;SDS011;56269;51.738;21.652;2022-12-29T13:31:18;12.32;;;4.45;;
69161;SDS011;56269;51.738;21.652;2022-12-29T13:34:56;11.00;;;4.47;;
69161;SDS011;56269;51.738;21.652;2022-12-29T13:36:56;12.52;;;4.80;;
69161;SDS011;56269;51.738;21.652;2022-12-29T13:39:39;12.48;;;5.28;;
69161;SDS011;56269;51.738;21.652;2022-12-29T13:42:11;11.90;;;4.95;;
69161;SDS011;56269;51.738;21.652;2022-12-29T13:44:55;12.48;;;4.65;;
69161;SDS011;56269;51.738;21.652;2022-12-29T13:47:40;11.37;;;4.50;;
69161;SDS011;56269;51.738;21.652;2022-12-29T13:50:29;12.30;;;4.70;;
69161;SDS011;56269;51.738;21.652;2022-12-29T13:53:04;12.80;;;5.13;;
69161;SDS011;56269;51.738;21.652;2022-12-29T13:56:06;12.40;;;4.68;;
69161;SDS011;56269;51.738;21.652;2022-12-29T13:58:54;12.07;;;4.93;;
69161;SDS011;56269;51.738;21.652;2022-12-29T14:02:03;15.07;;;5.13;;
69161;SDS011;56269;51.738;21.652;2022-12-29T14:05:02;15.50;;;4.85;;
69161;SDS011;56269;51.738;21.652;2022-12-29T14:07:37;11.32;;;4.60;;
69161;SDS011;56269;51.738;21.652;2022-12-29T14:10:18;11.95;;;4.28;;
69161;SDS011;56269;51.738;21.652;2022-12-29T14:13:04;9.68;;;4.40;;
69161;SDS011;56269;51.738;21.652;2022-12-29T14:15:39;10.47;;;4.50;;
69161;SDS011;56269;51.738;21.652;2022-12-29T14:18:23;11.45;;;4.57;;
69161;SDS011;56269;51.738;21.652;2022-12-29T14:20:55;11.52;;;5.15;;
69161;SDS011;56269;51.738;21.652;2022-12-29T14:23:38;12.75;;;5.07;;
69161;SDS011;56269;51.738;21.652;2022-12-29T14:28:42;12.27;;;4.77;;
69161;SDS011;56269;51.738;21.652;2022-12-29T14:34:14;11.77;;;4.20;;
69161;SDS011;56269;51.738;21.652;2022-12-29T14:39:40;13.43;;;3.83;;
69161;SDS011;56269;51.738;21.652;2022-12-29T14:44:46;11.40;;;4.30;;
69161;SDS011;56269;51.738;21.652;2022-12-29T14:56:14;12.73;;;5.03;;
69161;SDS011;56269;51.738;21.652;2022-12-29T14:58:54;11.95;;;5.20;;
69161;SDS011;56269;51.738;21.652;2022-12-29T15:01:36;15.48;;;5.32;;
69161;SDS011;56269;51.738;21.652;2022-12-29T15:06:54;15.68;;;5.63;;
69161;SDS011;56269;51.738;21.652;2022-12-29T15:09:25;13.70;;;5.10;;
69161;SDS011;56269;51.738;21.652;2022-12-29T15:14:55;12.95;;;4.40;;
69161;SDS011;56269;51.738;21.652;2022-12-29T15:19:55;11.18;;;3.85;;
69161;SDS011;56269;51.738;21.652;2022-12-29T15:22:24;10.90;;;4.20;;
69161;SDS011;56269;51.738;21.652;2022-12-29T15:24:55;14.07;;;5.07;;
69161;SDS011;56269;51.738;21.652;2022-12-29T15:27:25;13.90;;;5.75;;
69161;SDS011;56269;51.738;21.652;2022-12-29T15:29:59;16.63;;;7.13;;
69161;SDS011;56269;51.738;21.652;2022-12-29T15:32:49;17.15;;;5.80;;
69161;SDS011;56269;51.738;21.652;2022-12-29T15:35:37;15.23;;;5.10;;
69161;SDS011;56269;51.738;21.652;2022-12-29T15:38:15;15.65;;;4.90;;
69161;SDS011;56269;51.738;21.652;2022-12-29T15:44:26;14.15;;;5.85;;
69161;SDS011;56269;51.738;21.652;2022-12-29T15:47:05;14.75;;;5.20;;
69161;SDS011;56269;51.738;21.652;2022-12-29T15:50:06;19.17;;;7.20;;
69161;SDS011;56269;51.738;21.652;2022-12-29T15:52:48;13.07;;;4.72;;
69161;SDS011;56269;51.738;21.652;2022-12-29T15:55:30;15.18;;;5.63;;
69161;SDS011;56269;51.738;21.652;2022-12-29T15:58:03;13.80;;;5.78;;
69161;SDS011;56269;51.738;21.652;2022-12-29T16:00:34;15.48;;;6.22;;
69161;SDS011;56269;51.738;21.652;2022-12-29T16:03:04;15.17;;;6.67;;
69161;SDS011;56269;51.738;21.652;2022-12-29T16:05:40;23.52;;;8.27;;
69161;SDS011;56269;51.738;21.652;2022-12-29T16:08:54;16.23;;;6.13;;
69161;SDS011;56269;51.738;21.652;2022-12-29T16:11:20;16.15;;;6.65;;
69161;SDS011;56269;51.738;21.652;2022-12-29T16:13:54;17.23;;;7.70;;
69161;SDS011;56269;51.738;21.652;2022-12-29T16:16:34;15.67;;;6.40;;
69161;SDS011;56269;51.738;21.652;2022-12-29T16:19:15;15.32;;;6.05;;
69161;SDS011;56269;51.738;21.652;2022-12-29T16:21:58;20.70;;;8.90;;
69161;SDS011;56269;51.738;21.652;2022-12-29T16:24:30;17.92;;;7.80;;
69161;SDS011;56269;51.738;21.652;2022-12-29T16:29:33;19.70;;;8.40;;
69161;SDS011;56269;51.738;21.652;2022-12-29T16:32:18;25.38;;;11.30;;
69161;SDS011;56269;51.738;21.652;2022-12-29T16:37:45;19.15;;;7.45;;
69161;SDS011;56269;51.738;21.652;2022-12-29T16:40:23;16.55;;;7.43;;
69161;SDS011;56269;51.738;21.652;2022-12-29T16:42:59;23.17;;;9.00;;
69161;SDS011;56269;51.738;21.652;2022-12-29T16:50:48;17.33;;;7.32;;
69161;SDS011;56269;51.738;21.652;2022-12-29T16:55:49;12.90;;;5.33;;
69161;SDS011;56269;51.738;21.652;2022-12-29T16:58:19;20.58;;;8.35;;
69161;SDS011;56269;51.738;21.652;2022-12-29T17:00:48;17.70;;;7.05;;
69161;SDS011;56269;51.738;21.652;2022-12-29T17:03:14;19.75;;;7.55;;
69161;SDS011;56269;51.738;21.652;2022-12-29T17:05:41;16.98;;;6.72;;
69161;SDS011;56269;51.738;21.652;2022-12-29T17:08:17;12.60;;;5.47;;
69161;SDS011;56269;51.738;21.652;2022-12-29T17:10:49;14.20;;;5.20;;
69161;SDS011;56269;51.738;21.652;2022-12-29T17:13:40;18.90;;;6.82;;
69161;SDS011;56269;51.738;21.652;2022-12-29T17:16:06;17.77;;;7.38;;
69161;SDS011;56269;51.738;21.652;2022-12-29T17:18:35;19.83;;;6.93;;
69161;SDS011;56269;51.738;21.652;2022-12-29T17:21:02;17.30;;;7.43;;
69161;SDS011;56269;51.738;21.652;2022-12-29T17:23:29;14.55;;;6.10;;